createdAt,value
2018-01-22T17:10:36.237Z,987.55
2018-01-22T17:11:36.215Z,987.63
2018-01-22T17:13:29.093Z,987.70
2018-01-22T17:14:29.072Z,987.65
2018-01-22T17:16:22.934Z,987.73
2018-01-22T17:17:22.922Z,987.78
2018-01-22T17:19:15.807Z,987.80
2018-01-22T17:20:15.784Z,987.76
2018-01-22T17:22:08.654Z,987.88
2018-01-22T17:23:08.642Z,987.94
2018-01-22T17:25:01.533Z,988.05
2018-01-22T17:26:01.510Z,988.05
2018-01-22T17:27:54.384Z,988.13
2018-01-22T17:28:54.371Z,988.15
2018-01-22T17:30:47.309Z,988.27
2018-01-22T17:31:47.237Z,988.27
2018-01-22T17:33:40.624Z,988.33
2018-01-22T17:34:40.602Z,988.35
2018-01-22T17:35:40.595Z,988.40
2018-01-22T17:36:40.585Z,988.42
2018-01-22T17:37:40.585Z,988.44
2018-01-22T17:38:40.575Z,988.50
2018-01-22T17:39:40.562Z,988.48
2018-01-22T17:40:40.553Z,988.54
2018-01-22T17:41:40.547Z,988.60
2018-01-22T17:42:40.552Z,988.59
2018-01-22T17:43:40.530Z,988.63
2018-01-22T17:44:40.924Z,988.66
2018-01-22T17:45:40.514Z,988.70
2018-01-22T17:46:40.506Z,988.68
2018-01-22T17:47:40.502Z,988.67
2018-01-22T17:48:40.489Z,988.67
2018-01-22T17:49:40.483Z,988.76
2018-01-22T17:50:40.474Z,988.79
2018-01-22T17:51:40.475Z,988.77
2018-01-22T17:52:40.461Z,988.81
2018-01-22T17:53:40.454Z,988.85
2018-01-22T17:54:40.443Z,988.85
2018-01-22T17:55:40.470Z,988.88
2018-01-22T17:56:40.428Z,988.91
2018-01-22T17:57:41.697Z,988.93
2018-01-22T17:58:40.416Z,988.92
2018-01-22T17:59:40.406Z,988.94
2018-01-22T18:00:40.443Z,988.99
2018-01-22T18:01:40.387Z,989.08
2018-01-22T18:02:41.397Z,989.08
2018-01-22T18:03:40.373Z,989.08
2018-01-22T18:04:40.362Z,989.15
2018-01-22T18:05:40.356Z,989.18
2018-01-22T18:08:07.385Z,989.19
2018-01-22T18:08:40.884Z,989.19
2018-01-22T18:09:41.183Z,989.23
2018-01-22T18:10:40.980Z,989.25
2018-01-22T18:32:24.292Z,989.57
2018-01-22T18:33:24.269Z,989.56
2018-01-22T18:35:17.147Z,989.60
2018-01-22T18:36:17.124Z,989.66
2018-01-22T18:37:17.116Z,989.66
2018-01-22T18:38:17.119Z,989.68
2018-01-22T18:39:17.099Z,989.68
2018-01-22T18:40:17.091Z,989.70
2018-01-22T18:41:17.083Z,989.73
2018-01-22T18:42:17.864Z,989.74
2018-01-22T18:43:17.065Z,989.75
2018-01-22T18:44:17.057Z,989.78
2018-01-22T18:45:17.051Z,989.77
2018-01-22T18:46:17.041Z,989.82
2018-01-22T18:47:17.033Z,989.81
2018-01-22T18:48:17.576Z,989.85
2018-01-22T18:49:17.020Z,989.85
2018-01-22T18:50:17.009Z,989.84
2018-01-22T18:51:17.004Z,989.86
2018-01-22T18:52:16.993Z,989.85
2018-01-22T18:53:16.986Z,989.89
2018-01-22T18:54:16.976Z,989.90
2018-01-22T18:55:16.970Z,989.86
2018-01-22T18:56:16.961Z,989.83
2018-01-22T18:57:16.953Z,989.85
2018-01-22T18:58:16.945Z,989.84
2018-01-22T18:59:16.938Z,989.80
2018-01-22T19:00:16.929Z,989.76
2018-01-22T19:01:16.924Z,989.76
2018-01-22T19:02:16.918Z,989.80
2018-01-22T19:03:16.913Z,989.85
2018-01-22T19:04:16.901Z,989.90
2018-01-22T19:05:16.890Z,989.84
2018-01-22T19:06:16.882Z,989.85
2018-01-22T19:07:16.875Z,989.88
2018-01-22T19:08:16.867Z,989.91
2018-01-22T19:09:16.859Z,989.92
2018-01-22T19:10:16.851Z,989.92
2018-01-22T19:11:16.844Z,989.97
2018-01-22T19:12:16.834Z,989.99
2018-01-22T19:13:16.827Z,990.03
2018-01-22T19:14:16.822Z,990.11
2018-01-22T19:15:16.813Z,990.08
2018-01-22T19:16:16.807Z,990.16
2018-01-22T19:17:16.799Z,990.22
2018-01-22T19:18:16.788Z,990.21
2018-01-22T19:19:16.782Z,990.27
2018-01-22T19:20:16.773Z,990.29
2018-01-22T19:21:16.768Z,990.31
2018-01-22T19:22:16.758Z,990.31
2018-01-22T19:23:16.751Z,990.33
2018-01-22T19:24:16.746Z,990.34
2018-01-22T19:25:16.735Z,990.36
2018-01-22T19:26:16.726Z,990.38
2018-01-22T19:27:16.717Z,990.44
2018-01-22T19:28:16.710Z,990.49
2018-01-22T19:29:16.700Z,990.47
2018-01-22T19:30:16.691Z,990.53
2018-01-22T19:31:16.684Z,990.61
2018-01-22T19:32:16.676Z,990.56
2018-01-22T19:33:16.670Z,990.57
2018-01-22T19:34:16.661Z,990.61
2018-01-22T19:35:16.654Z,990.52
2018-01-22T19:36:16.650Z,990.61
2018-01-22T19:37:16.633Z,990.58
2018-01-22T19:38:16.629Z,990.61
2018-01-22T19:39:16.622Z,990.60
2018-01-22T19:40:16.614Z,990.61
2018-01-22T19:41:16.607Z,990.69
2018-01-22T19:42:16.598Z,990.68
2018-01-22T19:43:16.592Z,990.65
2018-01-22T19:44:16.583Z,990.67
2018-01-22T19:45:16.577Z,990.70
2018-01-22T19:46:17.757Z,990.73
2018-01-22T19:47:16.826Z,990.74
2018-01-22T19:48:16.755Z,990.75
2018-01-22T19:49:16.544Z,990.75
2018-01-22T19:50:16.540Z,990.80
2018-01-22T19:51:16.528Z,990.84
2018-01-22T19:52:16.519Z,990.82
2018-01-22T19:53:16.510Z,990.82
2018-01-22T19:54:16.504Z,990.78
2018-01-22T19:55:16.495Z,990.82
2018-01-22T19:56:16.487Z,990.83
2018-01-22T19:57:16.484Z,990.88
2018-01-22T19:58:16.472Z,990.89
2018-01-22T19:59:16.464Z,990.92
2018-01-22T20:00:16.459Z,990.96
2018-01-22T20:01:16.452Z,991.05
2018-01-22T20:02:16.441Z,991.07
2018-01-22T20:03:16.433Z,991.09
2018-01-22T20:04:16.430Z,991.14
2018-01-22T20:05:16.417Z,991.14
2018-01-22T20:06:16.409Z,991.14
2018-01-22T20:07:16.402Z,991.23
2018-01-22T20:08:16.394Z,991.26
2018-01-22T20:09:16.387Z,991.31
2018-01-22T20:10:16.377Z,991.36
2018-01-22T20:11:16.370Z,991.37
2018-01-22T20:12:16.363Z,991.37
2018-01-22T20:13:16.358Z,991.40
2018-01-22T20:14:16.346Z,991.40
2018-01-22T20:15:16.340Z,991.38
2018-01-22T20:16:16.332Z,991.41
2018-01-22T20:17:16.324Z,991.44
2018-01-22T20:18:16.316Z,991.45
2018-01-22T20:19:16.309Z,991.47
2018-01-22T20:20:16.300Z,991.45
2018-01-22T20:21:16.294Z,991.47
2018-01-22T20:22:16.283Z,991.47
2018-01-22T20:23:16.276Z,991.51
2018-01-22T20:24:16.269Z,991.57
2018-01-22T20:25:16.261Z,991.49
2018-01-22T20:26:16.254Z,991.50
2018-01-22T20:27:16.246Z,991.50
2018-01-22T20:28:16.240Z,991.51
2018-01-22T20:29:16.232Z,991.55
2018-01-22T20:30:16.221Z,991.63
2018-01-22T20:31:16.248Z,991.64
2018-01-22T20:32:16.205Z,991.62
2018-01-22T20:33:16.199Z,991.68
2018-01-22T20:34:16.190Z,991.71
2018-01-22T20:35:16.182Z,991.67
2018-01-22T20:36:16.196Z,991.70
2018-01-22T20:37:16.166Z,991.70
2018-01-22T20:38:16.158Z,991.72
2018-01-22T20:39:16.150Z,991.75
2018-01-22T20:40:16.142Z,991.76
2018-01-22T20:41:16.137Z,991.73
2018-01-22T20:42:16.132Z,991.79
2018-01-22T20:43:16.121Z,991.80
2018-01-22T20:44:16.112Z,991.77
2018-01-22T20:45:16.105Z,991.83
2018-01-22T20:46:16.104Z,991.78
2018-01-22T20:47:16.089Z,991.83
2018-01-22T20:48:16.083Z,991.79
2018-01-22T20:49:16.071Z,991.81
2018-01-22T20:50:16.069Z,991.81
2018-01-22T20:51:16.057Z,991.81
2018-01-22T20:52:16.050Z,991.81
2018-01-22T20:53:16.049Z,991.87
2018-01-22T20:54:16.034Z,991.85
2018-01-22T20:55:16.029Z,991.84
2018-01-22T20:56:16.018Z,991.91
2018-01-22T20:57:16.012Z,991.92
2018-01-22T20:58:16.050Z,991.96
2018-01-22T20:59:15.995Z,991.96
2018-01-22T21:00:15.988Z,991.97
2018-01-22T21:01:15.980Z,992.01
2018-01-22T21:02:15.971Z,992.00
2018-01-22T21:03:15.963Z,992.05
2018-01-22T21:04:15.957Z,992.05
2018-01-22T21:05:15.949Z,992.03
2018-01-22T21:06:15.939Z,992.11
2018-01-22T21:07:15.933Z,992.11
2018-01-22T21:08:15.930Z,992.11
2018-01-22T21:09:15.919Z,992.14
2018-01-22T21:10:15.907Z,992.17
2018-01-22T21:11:15.900Z,992.21
2018-01-22T21:12:15.896Z,992.29
2018-01-22T21:13:15.887Z,992.31
2018-01-22T21:14:15.878Z,992.33
2018-01-22T21:15:16.295Z,992.38
2018-01-22T21:16:15.859Z,992.46
2018-01-22T21:17:15.893Z,992.48
2018-01-22T21:18:15.851Z,992.46
2018-01-22T21:19:15.838Z,992.48
2018-01-22T21:20:15.831Z,992.47
2018-01-22T21:21:15.823Z,992.41
2018-01-22T21:22:15.824Z,992.43
2018-01-22T21:23:15.841Z,992.42
2018-01-22T21:24:15.838Z,992.40
2018-01-22T21:25:15.820Z,992.43
2018-01-22T21:26:15.810Z,992.41
2018-01-22T21:27:15.776Z,992.40
2018-01-22T21:28:15.792Z,992.47
2018-01-22T21:29:15.763Z,992.54
2018-01-22T21:30:15.751Z,992.56
2018-01-22T21:31:15.747Z,992.60
2018-01-22T21:32:15.737Z,992.61
2018-01-22T21:33:15.736Z,992.54
2018-01-22T21:34:15.721Z,992.49
2018-01-22T21:35:15.715Z,992.48
2018-01-22T21:36:15.708Z,992.51
2018-01-22T21:37:15.698Z,992.50
2018-01-22T21:38:15.694Z,992.47
2018-01-22T21:39:15.681Z,992.46
2018-01-22T21:40:15.733Z,992.46
2018-01-22T21:41:15.670Z,992.49
2018-01-22T21:42:15.659Z,992.50
2018-01-22T21:43:15.652Z,992.50
2018-01-22T21:44:16.084Z,992.47
2018-01-22T21:45:15.636Z,992.49
2018-01-22T21:46:15.627Z,992.54
2018-01-22T21:47:15.623Z,992.60
2018-01-22T21:48:16.265Z,992.66
2018-01-22T21:49:16.578Z,992.65
